Time,TemperatureF,DewpointF,PressureIn,WindDirection,WindDirectionDegrees,WindSpeedMPH,WindSpeedGustMPH,Humidity,HourlyPrecipIn,Conditions,Clouds,dailyrainin,SoftwareType,DateUTC
2013-07-26 00:00:00,59.0,57.6,29.82,ESE,115,6.9,6.9,95,0.02,CLR,,0.52,WeatherDisplay:10.37,2013-07-25 23:00:00,
2013-07-26 00:05:00,58.4,57.0,29.82,East,97,4.0,4.0,95,0.02,RA,,0.00,WeatherDisplay:10.37,2013-07-25 23:05:00,
2013-07-26 00:10:00,58.3,57.2,29.82,ESE,113,3.5,3.5,96,0.02,CLR,,0.00,WeatherDisplay:10.37,2013-07-25 23:10:00,
2013-07-26 00:15:00,58.5,57.4,29.82,ESE,112,2.3,2.3,96,0.03,RA,,0.01,WeatherDisplay:10.37,2013-07-25 23:15:00,
2013-07-26 00:20:00,58.9,57.8,29.82,SE,136,2.3,2.3,96,0.03,RA,,0.01,WeatherDisplay:10.37,2013-07-25 23:20:00,
2013-07-26 00:26:00,59.0,57.9,29.82,SE,137,0.0,0.0,96,0.03,,,0.01,WeatherDisplay:10.37,2013-07-25 23:26:00,
2013-07-26 00:31:00,59.1,58.0,29.82,SE,137,0.0,0.0,96,0.03,CLR,,0.01,WeatherDisplay:10.37,2013-07-25 23:31:00,
2013-07-26 00:36:00,59.4,58.3,29.82,SE,137,0.0,0.0,96,0.03,CLR,,0.01,WeatherDisplay:10.37,2013-07-25 23:36:00,
2013-07-26 00:41:00,59.5,58.4,29.82,SE,137,0.0,0.0,96,0.02,CLR,,0.01,WeatherDisplay:10.37,2013-07-25 23:41:00,
2013-07-26 00:47:00,59.5,58.4,29.82,SE,137,0.0,0.0,96,0.02,CLR,,0.01,WeatherDisplay:10.37,2013-07-25 23:47:00,
2013-07-26 00:53:00,59.1,58.0,29.82,South,178,0.0,0.0,96,0.01,CLR,,0.01,WeatherDisplay:10.37,2013-07-25 23:53:00,
2013-07-26 00:58:00,59.3,58.2,29.82,South,176,1.2,1.2,96,0.01,CLR,,0.01,WeatherDisplay:10.37,2013-07-25 23:58:00,
2013-07-26 01:03:00,59.5,58.4,29.82,South,181,2.3,2.3,96,0.01,CLR,,0.01,WeatherDisplay:10.37,2013-07-26 00:03:00,
2013-07-26 01:08:00,59.7,58.6,29.82,South,181,0.0,0.0,96,0.01,CLR,,0.01,WeatherDisplay:10.37,2013-07-26 00:08:00,
2013-07-26 01:15:00,59.8,58.7,29.82,SSE,160,1.2,1.2,96,0.00,CLR,,0.01,WeatherDisplay:10.37,2013-07-26 00:15:00,
2013-07-26 01:20:00,60.6,59.5,29.82,NE,50,3.5,3.5,96,0.00,CLR,,0.01,WeatherDisplay:10.37,2013-07-26 00:20:00,
2013-07-26 01:26:00,61.0,59.9,29.82,ENE,65,2.0,2.0,96,0.00,CLR,,0.01,WeatherDisplay:10.37,2013-07-26 00:26:00,
2013-07-26 01:33:00,61.2,60.1,29.82,NE,39,2.3,2.3,96,0.00,CLR,,0.01,WeatherDisplay:10.37,2013-07-26 00:33:00,
2013-07-26 01:38:00,61.4,60.2,29.82,ENE,65,3.5,3.5,96,0.00,CLR,,0.01,WeatherDisplay:10.37,2013-07-26 00:38:00,
2013-07-26 01:43:00,61.4,60.2,29.82,ENE,78,3.5,3.5,96,0.00,CLR,,0.01,WeatherDisplay:10.37,2013-07-26 00:43:00,
2013-07-26 01:48:00,61.4,60.2,29.82,NE,53,3.5,3.5,96,0.00,CLR,,0.01,WeatherDisplay:10.37,2013-07-26 00:48:00,
2013-07-26 01:53:00,61.5,60.1,29.82,ENE,63,3.5,3.5,95,0.00,CLR,,0.01,WeatherDisplay:10.37,2013-07-26 00:53:00,
2013-07-26 01:59:00,61.6,60.2,29.82,ENE,64,3.5,3.5,95,0.00,CLR,,0.01,WeatherDisplay:10.37,2013-07-26 00:59:00,
2013-07-26 02:04:00,61.5,60.1,29.82,NE,51,3.5,3.5,95,0.00,CLR,,0.01,WeatherDisplay:10.37,2013-07-26 01:04:00,
2013-07-26 02:10:00,61.6,60.2,29.82,NE,37,2.3,2.3,95,0.00,CLR,,0.01,WeatherDisplay:10.37,2013-07-26 01:10:00,
2013-07-26 02:15:00,61.6,60.2,29.82,NE,39,3.5,3.5,95,0.00,CLR,,0.01,WeatherDisplay:10.37,2013-07-26 01:15:00,
2013-07-26 02:20:00,61.6,60.2,29.82,NE,43,2.3,2.3,95,0.00,CLR,,0.01,WeatherDisplay:10.37,2013-07-26 01:20:00,
2013-07-26 02:25:00,61.6,60.2,29.82,NNE,23,2.3,2.3,95,0.00,CLR,,0.01,WeatherDisplay:10.37,2013-07-26 01:25:00,
2013-07-26 02:30:00,61.6,60.2,29.82,NNE,32,2.3,2.3,95,0.00,CLR,,0.01,WeatherDisplay:10.37,2013-07-26 01:30:00,
2013-07-26 02:36:00,61.6,60.2,29.82,ENE,62,3.5,3.5,95,0.00,CLR,,0.01,WeatherDisplay:10.37,2013-07-26 01:36:00,
2013-07-26 02:41:00,61.6,60.2,29.82,NE,53,2.3,2.3,95,0.00,CLR,,0.01,WeatherDisplay:10.37,2013-07-26 01:41:00,
2013-07-26 02:46:00,61.6,60.2,29.82,NNE,22,0.0,0.0,95,0.01,RA,,0.02,WeatherDisplay:10.37,2013-07-26 01:46:00,
2013-07-26 02:51:00,61.5,60.1,29.82,NNE,22,0.0,0.0,95,0.01,RA,,0.02,WeatherDisplay:10.37,2013-07-26 01:51:00,
2013-07-26 02:57:00,61.1,59.4,29.82,NNE,22,1.2,0.0,94,0.01,,,0.02,WeatherDisplay:10.37,2013-07-26 01:57:00,
2013-07-26 03:02:00,60.5,58.8,29.82,NNE,22,0.0,0.0,94,0.01,CLR,,0.02,WeatherDisplay:10.37,2013-07-26 02:02:00,
2013-07-26 03:08:00,60.7,59.3,29.82,NNE,22,0.0,0.0,95,0.01,CLR,,0.02,WeatherDisplay:10.37,2013-07-26 02:08:00,
2013-07-26 03:13:00,61.1,59.7,29.81,NNE,22,1.2,0.0,95,0.01,CLR,,0.02,WeatherDisplay:10.37,2013-07-26 02:13:00,
2013-07-26 03:18:00,61.1,59.7,29.81,NNE,33,1.2,1.2,95,0.01,CLR,,0.02,WeatherDisplay:10.37,2013-07-26 02:18:00,
2013-07-26 03:23:00,61.2,59.8,29.81,NNE,33,2.3,2.3,95,0.01,CLR,,0.02,WeatherDisplay:10.37,2013-07-26 02:23:00,
2013-07-26 03:29:00,61.3,59.9,29.81,NNE,33,1.2,1.2,95,0.01,CLR,,0.02,WeatherDisplay:10.37,2013-07-26 02:29:00,
2013-07-26 03:34:00,61.2,59.8,29.81,NNE,33,1.2,0.0,95,0.01,CLR,,0.02,WeatherDisplay:10.37,2013-07-26 02:34:00,
2013-07-26 03:39:00,60.5,58.8,29.81,NNW,347,1.2,0.0,94,0.01,CLR,,0.02,WeatherDisplay:10.37,2013-07-26 02:39:00,
2013-07-26 03:44:00,59.9,58.2,29.81,NW,308,0.0,0.0,94,0.01,CLR,,0.02,WeatherDisplay:10.37,2013-07-26 02:44:00,
2013-07-26 03:49:00,59.7,58.3,29.81,NW,307,0.0,0.0,95,0.00,CLR,,0.02,WeatherDisplay:10.37,2013-07-26 02:49:00,
2013-07-26 03:54:00,59.5,58.1,29.81,NW,308,1.2,1.2,95,0.00,CLR,,0.02,WeatherDisplay:10.37,2013-07-26 02:54:00,
2013-07-26 04:01:00,59.3,57.9,29.81,NW,307,0.0,0.0,95,0.00,CLR,,0.02,WeatherDisplay:10.37,2013-07-26 03:01:00,
2013-07-26 04:06:00,59.3,57.9,29.81,NW,307,0.0,0.0,95,0.00,CLR,,0.02,WeatherDisplay:10.37,2013-07-26 03:06:00,
2013-07-26 04:11:00,59.3,57.9,29.81,NW,308,0.0,0.0,95,0.00,CLR,,0.02,WeatherDisplay:10.37,2013-07-26 03:11:00,
2013-07-26 04:17:00,59.5,58.1,29.81,NW,307,0.0,0.0,95,0.00,CLR,,0.02,WeatherDisplay:10.37,2013-07-26 03:17:00,
2013-07-26 04:22:00,59.3,57.9,29.81,NW,308,0.0,0.0,95,0.00,CLR,,0.02,WeatherDisplay:10.37,2013-07-26 03:22:00,
2013-07-26 04:27:00,59.2,57.8,29.81,NW,308,0.0,0.0,95,0.00,CLR,,0.02,WeatherDisplay:10.37,2013-07-26 03:27:00,
2013-07-26 04:33:00,59.0,57.6,29.81,NW,308,0.0,0.0,95,0.00,CLR,,0.02,WeatherDisplay:10.37,2013-07-26 03:33:00,
2013-07-26 04:38:00,59.1,57.7,29.81,NW,307,0.0,0.0,95,0.00,CLR,,0.02,WeatherDisplay:10.37,2013-07-26 03:38:00,
2013-07-26 04:44:00,59.4,58.3,29.81,NW,308,0.0,0.0,96,0.00,CLR,,0.02,WeatherDisplay:10.37,2013-07-26 03:44:00,
2013-07-26 04:51:00,59.6,58.5,29.81,NW,307,0.0,0.0,96,0.00,CLR,,0.02,WeatherDisplay:10.37,2013-07-26 03:51:00,
2013-07-26 04:56:00,59.6,58.5,29.81,NW,307,0.0,0.0,96,0.00,CLR,,0.02,WeatherDisplay:10.37,2013-07-26 03:56:00,
2013-07-26 05:03:00,59.5,58.1,29.81,NW,308,0.0,0.0,95,0.00,CLR,,0.02,WeatherDisplay:10.37,2013-07-26 04:03:00,
2013-07-26 05:08:00,59.4,58.0,29.81,NW,307,0.0,0.0,95,0.00,CLR,,0.02,WeatherDisplay:10.37,2013-07-26 04:08:00,
2013-07-26 05:14:00,59.4,58.3,29.82,NW,308,0.0,0.0,96,0.00,CLR,,0.02,WeatherDisplay:10.37,2013-07-26 04:14:00,
2013-07-26 05:20:00,59.6,58.5,29.82,NW,308,0.0,0.0,96,0.00,CLR,,0.02,WeatherDisplay:10.37,2013-07-26 04:20:00,
2013-07-26 05:25:00,59.9,58.8,29.82,NW,307,0.0,0.0,96,0.00,CLR,,0.02,WeatherDisplay:10.37,2013-07-26 04:25:00,
2013-07-26 05:30:00,59.8,58.7,29.82,NW,308,0.0,0.0,96,0.00,CLR,,0.02,WeatherDisplay:10.37,2013-07-26 04:30:00,
2013-07-26 05:36:00,59.7,58.6,29.81,NW,307,0.0,0.0,96,0.04,RA,,0.06,WeatherDisplay:10.37,2013-07-26 04:36:00,
2013-07-26 05:41:00,59.6,58.5,29.81,NW,307,0.0,0.0,96,0.04,RA,,0.06,WeatherDisplay:10.37,2013-07-26 04:41:00,
2013-07-26 05:46:00,59.8,58.7,29.81,NW,307,0.0,0.0,96,0.04,,,0.06,WeatherDisplay:10.37,2013-07-26 04:46:00,
2013-07-26 05:52:00,60.1,59.0,29.81,NW,307,0.0,0.0,96,0.04,CLR,,0.06,WeatherDisplay:10.37,2013-07-26 04:52:00,
2013-07-26 05:58:00,60.2,59.1,29.81,NW,308,0.0,0.0,96,0.05,RA,,0.06,WeatherDisplay:10.37,2013-07-26 04:58:00,
2013-07-26 06:05:00,60.3,59.2,29.81,NW,308,0.0,0.0,96,0.05,,,0.06,WeatherDisplay:10.37,2013-07-26 05:05:00,
2013-07-26 06:12:00,60.3,59.2,29.81,NW,307,0.0,0.0,96,0.07,RA,,0.09,WeatherDisplay:10.37,2013-07-26 05:12:00,
2013-07-26 06:17:00,60.4,59.3,29.82,NW,307,0.0,0.1,96,0.07,RA,,0.09,WeatherDisplay:10.37,2013-07-26 05:17:00,
2013-07-26 06:22:00,60.5,59.4,29.81,NW,307,0.0,0.0,96,0.07,,,0.09,WeatherDisplay:10.37,2013-07-26 05:22:00,
2013-07-26 06:27:00,60.4,59.3,29.81,NW,308,0.0,0.0,96,0.07,CLR,,0.09,WeatherDisplay:10.37,2013-07-26 05:27:00,
2013-07-26 06:32:00,60.3,59.2,29.81,NW,308,0.0,0.0,96,0.05,CLR,,0.09,WeatherDisplay:10.37,2013-07-26 05:32:00,
2013-07-26 06:37:00,60.3,59.2,29.82,NW,307,0.0,0.0,96,0.03,CLR,,0.09,WeatherDisplay:10.37,2013-07-26 05:37:00,
2013-07-26 06:43:00,60.4,59.3,29.82,NW,307,1.2,0.0,96,0.03,CLR,,0.09,WeatherDisplay:10.37,2013-07-26 05:43:00,
2013-07-26 06:48:00,60.5,59.4,29.82,NW,307,0.0,0.0,96,0.03,CLR,,0.09,WeatherDisplay:10.37,2013-07-26 05:48:00,
2013-07-26 06:53:00,60.5,59.4,29.82,NW,308,0.0,0.0,96,0.02,CLR,,0.09,WeatherDisplay:10.37,2013-07-26 05:53:00,
2013-07-26 06:59:00,60.6,59.5,29.81,NW,308,0.0,0.0,96,0.02,CLR,,0.09,WeatherDisplay:10.37,2013-07-26 05:59:00,
2013-07-26 07:04:00,60.7,59.6,29.81,NW,308,0.0,0.0,96,0.02,CLR,,0.09,WeatherDisplay:10.37,2013-07-26 06:04:00,
2013-07-26 07:10:00,60.7,59.6,29.82,NW,308,1.2,0.0,96,0.01,CLR,,0.09,WeatherDisplay:10.37,2013-07-26 06:10:00,
2013-07-26 07:15:00,60.6,59.5,29.82,NW,308,0.0,0.0,96,0.00,CLR,,0.09,WeatherDisplay:10.37,2013-07-26 06:15:00,
2013-07-26 07:21:00,60.6,59.5,29.82,NW,307,0.0,0.0,96,0.00,CLR,,0.09,WeatherDisplay:10.37,2013-07-26 06:21:00,
2013-07-26 07:27:00,60.5,59.4,29.82,NW,308,0.0,0.0,96,0.01,RA,,0.09,WeatherDisplay:10.37,2013-07-26 06:27:00,
2013-07-26 07:32:00,60.4,59.3,29.82,NW,308,0.0,0.0,96,0.01,RA,,0.09,WeatherDisplay:10.37,2013-07-26 06:32:00,
2013-07-26 07:37:00,60.2,59.1,29.82,NW,308,0.0,0.0,96,0.01,,,0.09,WeatherDisplay:10.37,2013-07-26 06:37:00,
2013-07-26 07:43:00,60.0,58.9,29.82,NW,306,0.0,0.0,96,0.02,RA,,0.10,WeatherDisplay:10.37,2013-07-26 06:43:00,
2013-07-26 07:48:00,59.9,58.8,29.82,NW,304,0.0,0.0,96,0.02,RA,,0.11,WeatherDisplay:10.37,2013-07-26 06:48:00,
2013-07-26 07:53:00,59.3,57.9,29.82,NW,304,0.0,0.0,95,0.03,RA,,0.12,WeatherDisplay:10.37,2013-07-26 06:53:00,
2013-07-26 07:59:00,59.2,58.1,29.82,NW,304,0.0,0.0,96,0.03,RA,,0.12,WeatherDisplay:10.37,2013-07-26 06:59:00,
2013-07-26 08:04:00,59.6,58.5,29.83,WNW,300,0.0,0.0,96,0.05,RA,,0.13,WeatherDisplay:10.37,2013-07-26 07:04:00,
2013-07-26 08:09:00,59.8,58.7,29.82,WNW,298,0.0,0.0,96,0.06,RA,,0.14,WeatherDisplay:10.37,2013-07-26 07:09:00,
2013-07-26 08:14:00,59.8,58.7,29.83,WNW,298,0.0,0.0,96,0.06,RA,,0.14,WeatherDisplay:10.37,2013-07-26 07:14:00,
2013-07-26 08:19:00,60.0,58.9,29.83,WNW,298,0.0,0.0,96,0.06,CLR,,0.14,WeatherDisplay:10.37,2013-07-26 07:19:00,
2013-07-26 08:24:00,60.0,58.9,29.83,WSW,252,3.5,3.5,96,0.06,CLR,,0.14,WeatherDisplay:10.37,2013-07-26 07:24:00,
2013-07-26 08:30:00,59.7,58.6,29.83,WSW,252,3.5,3.5,96,0.06,RA,,0.15,WeatherDisplay:10.37,2013-07-26 07:30:00,
2013-07-26 08:35:00,59.5,58.4,29.83,SW,235,3.5,3.5,96,0.06,RA,,0.15,WeatherDisplay:10.37,2013-07-26 07:35:00,
2013-07-26 08:40:00,59.4,58.3,29.83,SW,235,5.8,5.8,96,0.05,CLR,,0.15,WeatherDisplay:10.37,2013-07-26 07:40:00,
2013-07-26 08:45:00,59.6,58.5,29.83,SW,233,5.8,5.8,96,0.04,CLR,,0.15,WeatherDisplay:10.37,2013-07-26 07:45:00,
2013-07-26 08:51:00,59.5,58.4,29.84,SW,226,6.0,6.0,96,0.04,CLR,,0.15,WeatherDisplay:10.37,2013-07-26 07:51:00,
2013-07-26 08:56:00,59.6,58.5,29.84,WSW,245,5.8,5.8,96,0.03,CLR,,0.15,WeatherDisplay:10.37,2013-07-26 07:56:00,
2013-07-26 09:01:00,59.7,58.6,29.84,WSW,254,3.5,3.5,96,0.02,CLR,,0.15,WeatherDisplay:10.37,2013-07-26 08:01:00,
2013-07-26 09:06:00,59.7,58.6,29.84,SW,228,5.8,5.8,96,0.01,CLR,,0.15,WeatherDisplay:10.37,2013-07-26 08:06:00,
2013-07-26 09:11:00,59.8,58.7,29.84,SW,222,5.8,5.8,96,0.01,CLR,,0.15,WeatherDisplay:10.37,2013-07-26 08:11:00,
2013-07-26 09:16:00,59.9,58.8,29.84,SW,232,4.6,4.6,96,0.01,CLR,,0.15,WeatherDisplay:10.37,2013-07-26 08:16:00,
2013-07-26 09:21:00,60.1,59.0,29.84,SW,224,5.8,5.8,96,0.01,CLR,,0.15,WeatherDisplay:10.37,2013-07-26 08:21:00,
2013-07-26 09:27:00,60.1,58.7,29.84,SW,226,7.0,7.0,95,0.01,CLR,,0.15,WeatherDisplay:10.37,2013-07-26 08:27:00,
2013-07-26 09:32:00,60.4,59.3,29.84,WSW,244,6.0,6.0,96,0.00,CLR,,0.15,WeatherDisplay:10.37,2013-07-26 08:32:00,
2013-07-26 09:37:00,60.6,59.2,29.84,West,272,3.5,3.5,95,0.03,RA,,0.19,WeatherDisplay:10.37,2013-07-26 08:37:00,
2013-07-26 09:42:00,61.0,59.9,29.84,West,273,1.2,1.2,96,0.04,RA,,0.19,WeatherDisplay:10.37,2013-07-26 08:42:00,
2013-07-26 09:47:00,62.3,61.1,29.84,West,273,1.2,1.2,96,0.04,,,0.19,WeatherDisplay:10.37,2013-07-26 08:47:00,
2013-07-26 09:53:00,62.9,61.4,29.84,WSW,245,3.0,3.0,95,0.04,CLR,,0.19,WeatherDisplay:10.37,2013-07-26 08:53:00,
2013-07-26 09:58:00,62.3,60.2,29.84,WSW,240,6.9,6.9,93,0.04,CLR,,0.19,WeatherDisplay:10.37,2013-07-26 08:58:00,
2013-07-26 10:03:00,62.4,60.7,29.84,SSW,201,4.6,4.6,94,0.04,CLR,,0.19,WeatherDisplay:10.37,2013-07-26 09:03:00,
2013-07-26 10:08:00,62.3,60.2,29.84,SW,223,5.8,5.8,93,0.04,CLR,,0.19,WeatherDisplay:10.37,2013-07-26 09:08:00,
2013-07-26 10:14:00,62.5,60.4,29.84,SW,214,5.8,5.8,93,0.04,CLR,,0.19,WeatherDisplay:10.37,2013-07-26 09:14:00,
2013-07-26 10:19:00,62.5,60.1,29.84,WSW,238,5.8,5.8,92,0.04,CLR,,0.19,WeatherDisplay:10.37,2013-07-26 09:19:00,
2013-07-26 10:25:00,62.7,60.3,29.84,SW,224,4.0,4.0,92,0.04,CLR,,0.19,WeatherDisplay:10.37,2013-07-26 09:25:00,
2013-07-26 10:31:00,62.6,59.9,29.84,SW,218,10.4,10.4,91,0.04,CLR,,0.19,WeatherDisplay:10.37,2013-07-26 09:31:00,
2013-07-26 10:36:00,62.5,59.8,29.84,WSW,243,6.0,6.0,91,0.02,CLR,,0.19,WeatherDisplay:10.37,2013-07-26 09:36:00,
2013-07-26 10:41:00,62.5,60.1,29.84,SW,218,5.8,5.8,92,0.00,CLR,,0.19,WeatherDisplay:10.37,2013-07-26 09:41:00,
2013-07-26 10:46:00,63.3,61.2,29.84,WSW,250,3.5,3.5,93,0.00,CLR,,0.19,WeatherDisplay:10.37,2013-07-26 09:46:00,
2013-07-26 10:51:00,63.6,60.9,29.84,WSW,240,3.5,3.5,91,0.00,CLR,,0.19,WeatherDisplay:10.37,2013-07-26 09:51:00,
2013-07-26 10:56:00,63.5,60.8,29.84,West,259,6.9,6.9,91,0.00,CLR,,0.19,WeatherDisplay:10.37,2013-07-26 09:56:00,
2013-07-26 11:01:00,63.6,60.9,29.84,SW,228,4.6,4.6,91,0.00,CLR,,0.19,WeatherDisplay:10.37,2013-07-26 10:01:00,
2013-07-26 11:06:00,63.8,61.1,29.84,WSW,256,1.2,1.2,91,0.00,CLR,,0.19,WeatherDisplay:10.37,2013-07-26 10:06:00,
2013-07-26 11:12:00,64.0,61.0,29.84,SW,230,6.9,6.9,90,0.00,CLR,,0.19,WeatherDisplay:10.37,2013-07-26 10:12:00,
2013-07-26 11:17:00,63.4,60.4,29.84,WSW,244,5.8,5.8,90,0.00,CLR,,0.19,WeatherDisplay:10.37,2013-07-26 10:17:00,
2013-07-26 11:22:00,63.0,60.0,29.84,SW,219,8.0,8.0,90,0.00,CLR,,0.19,WeatherDisplay:10.37,2013-07-26 10:22:00,
2013-07-26 11:27:00,63.2,60.5,29.85,WSW,245,8.1,8.1,91,0.00,CLR,,0.19,WeatherDisplay:10.37,2013-07-26 10:27:00,
2013-07-26 11:33:00,63.3,60.0,29.84,WSW,254,10.4,10.4,89,0.00,CLR,,0.19,WeatherDisplay:10.37,2013-07-26 10:33:00,
2013-07-26 11:38:00,63.3,60.0,29.84,SW,214,10.4,10.4,89,0.00,CLR,,0.19,WeatherDisplay:10.37,2013-07-26 10:38:00,
2013-07-26 11:44:00,63.3,60.0,29.84,SW,218,11.5,11.5,89,0.00,CLR,,0.19,WeatherDisplay:10.37,2013-07-26 10:44:00,
2013-07-26 11:49:00,63.5,59.9,29.85,WSW,255,12.7,12.7,88,0.00,CLR,,0.19,WeatherDisplay:10.37,2013-07-26 10:49:00,
2013-07-26 11:57:00,63.3,59.7,29.85,WSW,245,11.0,11.0,88,0.00,CLR,,0.19,WeatherDisplay:10.37,2013-07-26 10:57:00,
2013-07-26 12:02:00,63.4,60.1,29.85,WSW,252,13.8,13.8,89,0.00,CLR,,0.19,WeatherDisplay:10.37,2013-07-26 11:02:00,
2013-07-26 12:08:00,63.5,59.9,29.85,SW,231,18.4,18.4,88,0.00,CLR,,0.19,WeatherDisplay:10.37,2013-07-26 11:08:00,
2013-07-26 12:13:00,63.4,59.5,29.85,WSW,238,12.7,12.7,87,0.00,CLR,,0.19,WeatherDisplay:10.37,2013-07-26 11:13:00,
2013-07-26 12:18:00,63.3,59.7,29.85,SW,224,11.5,11.5,88,0.00,CLR,,0.19,WeatherDisplay:10.37,2013-07-26 11:18:00,
2013-07-26 12:23:00,63.1,59.5,29.84,SSW,207,10.4,10.4,88,0.00,CLR,,0.19,WeatherDisplay:10.37,2013-07-26 11:23:00,
2013-07-26 12:29:00,63.1,59.8,29.84,SSW,212,12.0,12.0,89,0.00,CLR,,0.19,WeatherDisplay:10.37,2013-07-26 11:29:00,
2013-07-26 12:34:00,63.4,60.1,29.84,SW,232,11.5,11.5,89,0.00,CLR,,0.19,WeatherDisplay:10.37,2013-07-26 11:34:00,
2013-07-26 12:39:00,63.3,59.7,29.84,SW,226,15.0,15.0,88,0.00,CLR,,0.19,WeatherDisplay:10.37,2013-07-26 11:39:00,
2013-07-26 12:44:00,63.5,59.9,29.84,SW,236,12.0,12.0,88,0.00,CLR,,0.19,WeatherDisplay:10.37,2013-07-26 11:44:00,
2013-07-26 12:49:00,63.6,59.7,29.84,SW,226,11.5,11.5,87,0.00,CLR,,0.19,WeatherDisplay:10.37,2013-07-26 11:49:00,
2013-07-26 12:54:00,63.7,59.8,29.84,WSW,246,11.5,11.5,87,0.00,CLR,,0.19,WeatherDisplay:10.37,2013-07-26 11:54:00,
2013-07-26 13:00:00,63.9,60.0,29.84,SW,228,12.0,12.0,87,0.00,CLR,,0.19,WeatherDisplay:10.37,2013-07-26 12:00:00,
2013-07-26 13:01:00,64.0,60.1,29.84,SW,220,13.8,13.8,87,0.00,CLR,,0.19,WeatherDisplay:10.37,2013-07-26 12:01:00,
2013-07-26 13:06:00,64.3,60.3,29.84,SW,235,12.7,12.7,87,0.00,CLR,,0.19,WeatherDisplay:10.37,2013-07-26 12:06:00,
2013-07-26 13:11:00,64.4,60.4,29.84,SSW,205,8.1,8.1,87,0.00,CLR,,0.19,WeatherDisplay:10.37,2013-07-26 12:11:00,
2013-07-26 13:16:00,64.6,60.3,29.84,WSW,246,11.5,11.5,86,0.00,CLR,,0.19,WeatherDisplay:10.37,2013-07-26 12:16:00,
2013-07-26 13:21:00,64.7,60.4,29.84,SSW,212,9.2,9.2,86,0.00,CLR,,0.19,WeatherDisplay:10.37,2013-07-26 12:21:00,
2013-07-26 13:26:00,64.8,60.2,29.84,SSW,211,12.7,12.7,85,0.00,CLR,,0.19,WeatherDisplay:10.37,2013-07-26 12:26:00,
2013-07-26 13:32:00,64.5,59.9,29.84,SW,231,11.5,11.5,85,0.00,CLR,,0.19,WeatherDisplay:10.37,2013-07-26 12:32:00,
2013-07-26 13:37:00,64.5,59.9,29.84,SW,236,10.4,10.4,85,0.00,CLR,,0.19,WeatherDisplay:10.37,2013-07-26 12:37:00,
2013-07-26 13:43:00,64.6,60.0,29.84,SW,234,8.1,8.1,85,0.00,CLR,,0.19,WeatherDisplay:10.37,2013-07-26 12:43:00,
2013-07-26 13:48:00,65.0,60.4,29.84,SW,233,6.0,6.0,85,0.00,CLR,,0.19,WeatherDisplay:10.37,2013-07-26 12:48:00,
2013-07-26 13:56:00,66.0,61.0,29.84,SW,220,3.5,3.5,84,0.00,CLR,,0.19,WeatherDisplay:10.37,2013-07-26 12:56:00,
2013-07-26 14:01:00,66.4,60.4,29.83,SSW,198,6.9,6.9,81,0.00,CLR,,0.19,WeatherDisplay:10.37,2013-07-26 13:01:00,
2013-07-26 14:07:00,66.8,60.8,29.83,SSW,202,5.8,5.8,81,0.00,CLR,,0.19,WeatherDisplay:10.37,2013-07-26 13:07:00,
2013-07-26 14:12:00,66.9,60.5,29.83,SW,222,6.9,6.9,80,0.00,CLR,,0.19,WeatherDisplay:10.37,2013-07-26 13:12:00,
2013-07-26 14:18:00,67.2,60.8,29.83,SW,219,6.0,6.0,80,0.00,CLR,,0.19,WeatherDisplay:10.37,2013-07-26 13:18:00,
2013-07-26 14:23:00,67.4,60.3,29.83,SSW,195,6.0,6.0,78,0.00,CLR,,0.19,WeatherDisplay:10.37,2013-07-26 13:23:00,
2013-07-26 14:29:00,67.7,60.6,29.83,SSW,211,5.8,5.8,78,0.00,CLR,,0.19,WeatherDisplay:10.37,2013-07-26 13:29:00,
2013-07-26 14:34:00,67.9,60.4,29.83,SW,232,4.6,4.6,77,0.00,CLR,,0.19,WeatherDisplay:10.37,2013-07-26 13:34:00,
2013-07-26 14:39:00,68.1,60.6,29.83,WSW,237,4.0,4.0,77,0.00,CLR,,0.19,WeatherDisplay:10.37,2013-07-26 13:39:00,
2013-07-26 14:45:00,67.8,60.3,29.83,SW,219,9.2,9.2,77,0.00,CLR,,0.19,WeatherDisplay:10.37,2013-07-26 13:45:00,
2013-07-26 14:50:00,68.0,60.5,29.83,SW,228,6.9,6.9,77,0.00,CLR,,0.19,WeatherDisplay:10.37,2013-07-26 13:50:00,
2013-07-26 14:55:00,67.8,60.7,29.83,WSW,255,5.8,5.8,78,0.00,CLR,,0.19,WeatherDisplay:10.37,2013-07-26 13:55:00,
2013-07-26 15:00:00,67.6,60.5,29.83,WSW,243,4.6,4.6,78,0.00,CLR,,0.19,WeatherDisplay:10.37,2013-07-26 14:00:00,
2013-07-26 15:05:00,67.9,61.1,29.83,WSW,252,7.0,7.0,79,0.00,CLR,,0.19,WeatherDisplay:10.37,2013-07-26 14:05:00,
2013-07-26 15:11:00,68.6,61.5,29.83,WNW,297,6.9,6.9,78,0.00,CLR,,0.19,WeatherDisplay:10.37,2013-07-26 14:11:00,
2013-07-26 15:16:00,68.5,61.7,29.83,WNW,301,6.9,6.9,79,0.00,CLR,,0.19,WeatherDisplay:10.37,2013-07-26 14:16:00,
2013-07-26 15:21:00,68.4,61.6,29.83,WNW,290,5.8,5.8,79,0.00,CLR,,0.19,WeatherDisplay:10.37,2013-07-26 14:21:00,
2013-07-26 15:26:00,67.3,60.9,29.83,WSW,255,8.1,8.1,80,0.00,CLR,,0.19,WeatherDisplay:10.37,2013-07-26 14:26:00,
2013-07-26 15:31:00,66.9,60.5,29.83,WSW,240,5.8,5.8,80,0.00,CLR,,0.19,WeatherDisplay:10.37,2013-07-26 14:31:00,
2013-07-26 15:37:00,67.0,61.0,29.83,WSW,240,8.1,8.1,81,0.00,CLR,,0.19,WeatherDisplay:10.37,2013-07-26 14:37:00,
2013-07-26 15:42:00,67.2,60.8,29.83,WSW,254,9.2,9.2,80,0.00,CLR,,0.19,WeatherDisplay:10.37,2013-07-26 14:42:00,
2013-07-26 15:47:00,66.8,60.8,29.83,West,261,11.5,11.5,81,0.00,CLR,,0.19,WeatherDisplay:10.37,2013-07-26 14:47:00,
2013-07-26 15:52:00,66.9,60.9,29.83,WSW,256,9.2,9.2,81,0.00,CLR,,0.19,WeatherDisplay:10.37,2013-07-26 14:52:00,
2013-07-26 15:57:00,66.6,61.3,29.83,West,268,8.1,8.1,83,0.00,CLR,,0.19,WeatherDisplay:10.37,2013-07-26 14:57:00,
2013-07-26 16:02:00,66.6,61.6,29.83,West,278,4.6,4.6,84,0.00,CLR,,0.19,WeatherDisplay:10.37,2013-07-26 15:02:00,
2013-07-26 16:07:00,66.8,61.1,29.83,NW,304,9.2,9.2,82,0.00,CLR,,0.19,WeatherDisplay:10.37,2013-07-26 15:07:00,
2013-07-26 16:13:00,66.2,60.9,29.83,WNW,297,8.1,8.1,83,0.00,CLR,,0.19,WeatherDisplay:10.37,2013-07-26 15:13:00,
2013-07-26 16:18:00,66.0,61.0,29.84,West,271,8.1,8.1,84,0.00,CLR,,0.19,WeatherDisplay:10.37,2013-07-26 15:18:00,
2013-07-26 16:23:00,65.7,59.7,29.83,WNW,298,8.1,8.1,81,0.00,CLR,,0.19,WeatherDisplay:10.37,2013-07-26 15:23:00,
2013-07-26 16:28:00,65.1,59.5,29.83,WNW,297,8.1,8.1,82,0.00,CLR,,0.19,WeatherDisplay:10.37,2013-07-26 15:28:00,
2013-07-26 16:35:00,65.2,59.9,29.83,WNW,302,6.9,6.9,83,0.00,CLR,,0.19,WeatherDisplay:10.37,2013-07-26 15:35:00,
2013-07-26 16:40:00,65.3,60.0,29.83,WNW,295,4.6,4.6,83,0.00,CLR,,0.19,WeatherDisplay:10.37,2013-07-26 15:40:00,
2013-07-26 16:45:00,65.3,60.3,29.83,WNW,295,4.6,4.6,84,0.00,CLR,,0.19,WeatherDisplay:10.37,2013-07-26 15:45:00,
2013-07-26 16:51:00,65.4,60.4,29.83,WSW,255,3.5,3.5,84,0.00,CLR,,0.19,WeatherDisplay:10.37,2013-07-26 15:51:00,
2013-07-26 16:56:00,65.4,60.4,29.83,West,279,3.5,3.5,84,0.00,CLR,,0.19,WeatherDisplay:10.37,2013-07-26 15:56:00,
2013-07-26 17:01:00,66.3,61.3,29.83,West,278,5.0,5.0,84,0.00,CLR,,0.19,WeatherDisplay:10.37,2013-07-26 16:01:00,
2013-07-26 17:06:00,66.0,61.0,29.83,West,261,3.5,3.5,84,0.00,CLR,,0.19,WeatherDisplay:10.37,2013-07-26 16:06:00,
2013-07-26 17:12:00,67.0,61.7,29.83,West,261,2.3,2.3,83,0.00,CLR,,0.19,WeatherDisplay:10.37,2013-07-26 16:12:00,
2013-07-26 17:17:00,67.7,60.6,29.83,West,273,4.6,4.6,78,0.00,CLR,,0.19,WeatherDisplay:10.37,2013-07-26 16:17:00,
2013-07-26 17:22:00,66.7,60.0,29.83,West,269,5.8,5.8,79,0.00,CLR,,0.19,WeatherDisplay:10.37,2013-07-26 16:22:00,
2013-07-26 17:28:00,65.9,60.9,29.82,West,277,3.5,3.5,84,0.00,CLR,,0.19,WeatherDisplay:10.37,2013-07-26 16:28:00,
2013-07-26 17:33:00,66.5,59.8,29.82,WNW,288,5.8,5.8,79,0.00,CLR,,0.19,WeatherDisplay:10.37,2013-07-26 16:33:00,
2013-07-26 17:39:00,66.8,59.4,29.82,WNW,294,5.8,5.8,77,0.00,CLR,,0.19,WeatherDisplay:10.37,2013-07-26 16:39:00,
2013-07-26 17:44:00,66.9,59.5,29.82,WNW,299,5.8,5.8,77,0.00,CLR,,0.19,WeatherDisplay:10.37,2013-07-26 16:44:00,
2013-07-26 17:50:00,67.3,59.5,29.82,WNW,291,3.5,3.5,76,0.00,CLR,,0.19,WeatherDisplay:10.37,2013-07-26 16:50:00,
2013-07-26 17:55:00,67.3,59.1,29.83,WNW,294,4.6,4.6,75,0.00,CLR,,0.19,WeatherDisplay:10.37,2013-07-26 16:55:00,
2013-07-26 18:00:00,66.7,59.3,29.83,WNW,288,4.6,4.6,77,0.00,CLR,,0.19,WeatherDisplay:10.37,2013-07-26 17:00:00,
2013-07-26 18:05:00,66.4,59.3,29.83,West,275,2.3,2.3,78,0.00,CLR,,0.19,WeatherDisplay:10.37,2013-07-26 17:05:00,
2013-07-26 18:11:00,66.2,58.8,29.83,WNW,293,4.6,4.6,77,0.00,CLR,,0.19,WeatherDisplay:10.37,2013-07-26 17:11:00,
2013-07-26 18:16:00,66.6,59.5,29.82,WNW,300,2.3,2.3,78,0.00,CLR,,0.19,WeatherDisplay:10.37,2013-07-26 17:16:00,
2013-07-26 18:21:00,67.7,60.2,29.82,West,262,2.3,2.3,77,0.00,CLR,,0.19,WeatherDisplay:10.37,2013-07-26 17:21:00,
2013-07-26 18:27:00,68.1,59.9,29.82,West,272,3.5,3.5,75,0.00,CLR,,0.19,WeatherDisplay:10.37,2013-07-26 17:27:00,
2013-07-26 18:33:00,68.4,59.4,29.82,WNW,282,3.5,3.5,73,0.00,CLR,,0.19,WeatherDisplay:10.37,2013-07-26 17:33:00,
2013-07-26 18:38:00,68.7,59.7,29.82,WNW,288,3.5,3.5,73,0.00,CLR,,0.19,WeatherDisplay:10.37,2013-07-26 17:38:00,
2013-07-26 18:43:00,69.2,60.2,29.83,West,278,3.5,3.5,73,0.00,CLR,,0.19,WeatherDisplay:10.37,2013-07-26 17:43:00,
2013-07-26 18:48:00,69.7,61.0,29.83,West,281,2.3,2.3,74,0.00,CLR,,0.19,WeatherDisplay:10.37,2013-07-26 17:48:00,
2013-07-26 18:54:00,70.4,60.9,29.83,West,269,2.3,2.3,72,0.00,CLR,,0.19,WeatherDisplay:10.37,2013-07-26 17:54:00,
2013-07-26 18:59:00,70.1,61.0,29.83,WSW,257,3.5,3.5,73,0.00,CLR,,0.19,WeatherDisplay:10.37,2013-07-26 17:59:00,
2013-07-26 19:04:00,69.7,61.0,29.83,WNW,300,5.0,5.0,74,0.00,CLR,,0.19,WeatherDisplay:10.37,2013-07-26 18:04:00,
2013-07-26 19:09:00,68.7,61.2,29.83,WNW,297,5.0,5.0,77,0.00,CLR,,0.19,WeatherDisplay:10.37,2013-07-26 18:09:00,
2013-07-26 19:15:00,68.6,60.7,29.83,WNW,295,4.6,4.6,76,0.00,CLR,,0.19,WeatherDisplay:10.37,2013-07-26 18:15:00,
2013-07-26 19:20:00,68.7,60.8,29.83,West,277,3.5,3.5,76,0.00,CLR,,0.19,WeatherDisplay:10.37,2013-07-26 18:20:00,
2013-07-26 19:25:00,68.8,61.3,29.83,WNW,300,3.5,3.5,77,0.00,CLR,,0.19,WeatherDisplay:10.37,2013-07-26 18:25:00,
2013-07-26 19:32:00,68.4,60.9,29.83,WNW,293,3.5,3.8,77,0.00,CLR,,0.19,WeatherDisplay:10.37,2013-07-26 18:32:00,
2013-07-26 19:37:00,68.4,61.3,29.82,WNW,296,5.8,5.8,78,0.00,CLR,,0.19,WeatherDisplay:10.37,2013-07-26 18:37:00,
2013-07-26 19:42:00,68.3,61.2,29.82,West,274,4.6,4.6,78,0.00,CLR,,0.19,WeatherDisplay:10.37,2013-07-26 18:42:00,
2013-07-26 19:48:00,68.1,61.0,29.83,WNW,294,4.0,4.0,78,0.00,CLR,,0.19,WeatherDisplay:10.37,2013-07-26 18:48:00,
2013-07-26 19:53:00,68.0,61.2,29.83,West,278,3.5,3.5,79,0.00,CLR,,0.19,WeatherDisplay:10.37,2013-07-26 18:53:00,
2013-07-26 19:59:00,67.6,60.9,29.83,West,270,3.5,3.5,79,0.00,CLR,,0.19,WeatherDisplay:10.37,2013-07-26 18:59:00,
2013-07-26 20:05:00,66.6,60.2,29.83,West,271,3.5,3.9,80,0.00,CLR,,0.19,WeatherDisplay:10.37,2013-07-26 19:05:00,
2013-07-26 20:10:00,66.2,60.2,29.83,WNW,284,3.5,3.5,81,0.00,CLR,,0.19,WeatherDisplay:10.37,2013-07-26 19:10:00,
2013-07-26 20:16:00,65.8,59.8,29.84,West,273,3.5,3.5,81,0.00,CLR,,0.19,WeatherDisplay:10.37,2013-07-26 19:16:00,
2013-07-26 20:21:00,65.4,59.8,29.84,WSW,257,3.0,3.0,82,0.00,CLR,,0.19,WeatherDisplay:10.37,2013-07-26 19:21:00,
2013-07-26 20:28:00,65.1,59.5,29.84,WSW,247,4.6,4.6,82,0.00,CLR,,0.19,WeatherDisplay:10.37,2013-07-26 19:28:00,
2013-07-26 20:34:00,64.4,59.1,29.84,WSW,240,6.9,6.9,83,0.00,CLR,,0.19,WeatherDisplay:10.37,2013-07-26 19:34:00,
2013-07-26 20:39:00,64.1,59.2,29.84,WSW,250,5.8,5.8,84,0.00,CLR,,0.19,WeatherDisplay:10.37,2013-07-26 19:39:00,
2013-07-26 20:46:00,64.1,59.2,29.84,WSW,257,3.5,3.5,84,0.00,CLR,,0.19,WeatherDisplay:10.37,2013-07-26 19:46:00,
2013-07-26 20:52:00,64.3,59.4,29.84,WSW,257,0.0,0.0,84,0.00,CLR,,0.19,WeatherDisplay:10.37,2013-07-26 19:52:00,
2013-07-26 20:57:00,64.4,59.5,29.84,WNW,291,1.2,1.2,84,0.00,CLR,,0.19,WeatherDisplay:10.37,2013-07-26 19:57:00,
2013-07-26 21:02:00,64.4,59.5,29.85,NNW,333,0.0,0.0,84,0.00,CLR,,0.19,WeatherDisplay:10.37,2013-07-26 20:02:00,
2013-07-26 21:07:00,64.5,59.9,29.85,NW,316,0.0,0.0,85,0.00,CLR,,0.19,WeatherDisplay:10.37,2013-07-26 20:07:00,
2013-07-26 21:13:00,64.6,59.7,29.85,WSW,249,3.5,3.5,84,0.00,CLR,,0.19,WeatherDisplay:10.37,2013-07-26 20:13:00,
2013-07-26 21:18:00,64.5,59.6,29.85,WSW,250,0.0,0.1,84,0.00,CLR,,0.19,WeatherDisplay:10.37,2013-07-26 20:18:00,
2013-07-26 21:24:00,64.1,58.8,29.85,West,266,2.3,2.3,83,0.00,CLR,,0.19,WeatherDisplay:10.37,2013-07-26 20:24:00,
2013-07-26 21:29:00,63.8,58.9,29.85,West,276,1.2,1.2,84,0.00,CLR,,0.19,WeatherDisplay:10.37,2013-07-26 20:29:00,
2013-07-26 21:35:00,63.3,58.4,29.85,WSW,249,2.3,2.3,84,0.00,CLR,,0.19,WeatherDisplay:10.37,2013-07-26 20:35:00,
2013-07-26 21:40:00,62.9,58.3,29.85,SW,218,2.3,2.3,85,0.00,CLR,,0.19,WeatherDisplay:10.37,2013-07-26 20:40:00,
2013-07-26 21:46:00,62.6,58.4,29.85,WSW,237,3.5,3.5,86,0.00,CLR,,0.19,WeatherDisplay:10.37,2013-07-26 20:46:00,
2013-07-26 21:51:00,62.5,58.3,29.85,SW,219,3.5,3.5,86,0.00,CLR,,0.19,WeatherDisplay:10.37,2013-07-26 20:51:00,
2013-07-26 21:57:00,62.2,58.3,29.85,WSW,247,1.0,1.0,87,0.00,CLR,,0.19,WeatherDisplay:10.37,2013-07-26 20:57:00,
2013-07-26 22:02:00,62.0,58.4,29.85,West,275,1.2,1.2,88,0.00,CLR,,0.19,WeatherDisplay:10.37,2013-07-26 21:02:00,
2013-07-26 22:07:00,61.9,58.3,29.85,West,263,1.2,1.2,88,0.00,CLR,,0.19,WeatherDisplay:10.37,2013-07-26 21:07:00,
2013-07-26 22:13:00,61.8,58.2,29.85,West,263,0.0,0.0,88,0.00,CLR,,0.19,WeatherDisplay:10.37,2013-07-26 21:13:00,
2013-07-26 22:18:00,61.7,58.1,29.85,West,263,0.0,0.0,88,0.00,CLR,,0.19,WeatherDisplay:10.37,2013-07-26 21:18:00,
2013-07-26 22:23:00,61.5,58.2,29.85,WNW,282,2.0,2.0,89,0.00,CLR,,0.19,WeatherDisplay:10.37,2013-07-26 21:23:00,
2013-07-26 22:29:00,61.5,58.2,29.85,WNW,283,0.0,0.0,89,0.00,CLR,,0.19,WeatherDisplay:10.37,2013-07-26 21:29:00,
2013-07-26 22:34:00,61.6,58.6,29.85,NNW,339,2.3,2.3,90,0.00,CLR,,0.19,WeatherDisplay:10.37,2013-07-26 21:34:00,
2013-07-26 22:39:00,61.6,58.6,29.85,NNE,13,2.3,2.3,90,0.00,CLR,,0.19,WeatherDisplay:10.37,2013-07-26 21:39:00,
2013-07-26 22:44:00,61.6,58.6,29.85,North,10,1.2,1.2,90,0.00,CLR,,0.19,WeatherDisplay:10.37,2013-07-26 21:44:00,
2013-07-26 22:49:00,61.7,58.7,29.85,NW,316,2.3,2.3,90,0.00,CLR,,0.19,WeatherDisplay:10.37,2013-07-26 21:49:00,
2013-07-26 22:54:00,61.7,58.4,29.85,East,85,2.3,2.3,89,0.00,CLR,,0.19,WeatherDisplay:10.37,2013-07-26 21:54:00,
2013-07-26 23:01:00,61.5,58.2,29.85,ENE,60,2.3,2.3,89,0.00,CLR,,0.19,WeatherDisplay:10.37,2013-07-26 22:01:00,
2013-07-26 23:06:00,61.3,58.0,29.85,South,184,2.0,2.0,89,0.00,CLR,,0.19,WeatherDisplay:10.37,2013-07-26 22:06:00,
2013-07-26 23:11:00,61.1,57.8,29.85,ESE,106,2.3,2.3,89,0.00,CLR,,0.19,WeatherDisplay:10.37,2013-07-26 22:11:00,
2013-07-26 23:17:00,60.9,57.6,29.85,NNE,18,1.2,1.2,89,0.00,CLR,,0.19,WeatherDisplay:10.37,2013-07-26 22:17:00,
2013-07-26 23:22:00,60.6,57.7,29.85,NE,54,2.3,2.3,90,0.00,CLR,,0.19,WeatherDisplay:10.37,2013-07-26 22:22:00,
2013-07-26 23:27:00,60.5,57.6,29.85,East,82,3.5,3.5,90,0.00,CLR,,0.19,WeatherDisplay:10.37,2013-07-26 22:27:00,
2013-07-26 23:32:00,60.3,57.4,29.85,NE,47,1.2,1.2,90,0.00,CLR,,0.19,WeatherDisplay:10.37,2013-07-26 22:32:00,
2013-07-26 23:37:00,60.2,57.3,29.85,NNE,13,1.2,0.0,90,0.00,CLR,,0.19,WeatherDisplay:10.37,2013-07-26 22:37:00,
2013-07-26 23:42:00,60.3,57.4,29.85,North,352,1.2,1.2,90,0.00,CLR,,0.19,WeatherDisplay:10.37,2013-07-26 22:42:00,
2013-07-26 23:48:00,60.1,57.2,29.85,NW,323,0.0,0.0,90,0.00,CLR,,0.19,WeatherDisplay:10.37,2013-07-26 22:48:00,
2013-07-26 23:54:00,59.9,57.0,29.85,NNW,334,2.3,2.3,90,0.00,CLR,,0.19,WeatherDisplay:10.37,2013-07-26 22:54:00,
2013-07-26 23:59:00,59.9,57.0,29.85,NNW,343,2.3,2.3,90,0.00,CLR,,0.19,WeatherDisplay:10.37,2013-07-26 22:59:00,